Bella Vista, Arkansas
Current Conditions -  °F | °C
As of 2:35 AM on Friday 24 Oct 2014 (Local Time) from KVBT Reporting Station
Clear Clear  
Wind Chill: 52°   Ceiling: Unl
Heat Index: 52°   Visibility: 3mi
Dew Point: 48°   Wind: 0mph
Humidity: 88%   Direction: NA
Pressure: 30.14"   Gusts: NA
Location:  36.48°N, 94.25°W
Report Text: KVBT 240735Z AUTO 00000KT 3SM CLR 11/09 A3014 RMK AO1
Loading
Personal Weather Stations






























Interactive Weather Map
Tropical Storm Tracking
New forecast layout! Learn more

10-Day Weather Forecast

Advertisements
Track Severe Weather on mobile